Bost/Laskar, Afghanistan
Current Conditions -  °F | °C
As of 11:55 PM on Sunday 21 Dec 2014 (Local Time) from KQXT Reporting Station
Few Clouds Few Clouds  
Wind Chill: 41°   Ceiling: Unl
Heat Index: 45°   Visibility: 6mi
Dew Point: 18°   Wind: 7mph
Humidity: 34%   Direction: 360°N
Pressure: 29.9"   Gusts: NA
Location:  31.55°N, 64.37°E
Report Text: KQXT 211955Z 36006KT 9999 FEW220 07/M08 A2990 RMK SLP125 WND DATA ESTMD ALSTG/SLP ESTMD Q1012
Loading
Personal Weather Stations






























Interactive Weather Map New forecast layout! Learn more

10-Day Weather Forecast

Advertisements
Track Severe Weather on mobile